Lichtervelde, Belgium
Current Conditions -  °F | °C
As of 8:50 AM on Monday 24 Nov 2014 (Local Time) from EBOS Reporting Station
Few Clouds Few Clouds  
Wind Chill: 41°   Ceiling: Unl
Heat Index: 45°   Visibility: 6mi
Dew Point: 36°   Wind: 6mph
Humidity: 71%   Direction: 360°N
Pressure: 30.27"   Gusts: NA
Location:  51.03°N, 3.15°E
Report Text: EBOS 240750Z 36005KT 9999 FEW020 07/02 Q1025 NOSIG
Loading
Personal Weather Stations






























Interactive Weather Map New forecast layout! Learn more

10-Day Weather Forecast

Advertisements
Track Severe Weather on mobile